createdAt,value
2022-09-17T00:00:08.787Z,0.00
2022-09-17T00:01:08.781Z,0.00
2022-09-17T00:02:08.864Z,0.00
2022-09-17T00:03:08.802Z,0.00
2022-09-17T00:04:08.780Z,0.00
2022-09-17T00:05:08.797Z,0.00
2022-09-17T00:06:08.776Z,0.00
2022-09-17T00:07:08.794Z,0.00
2022-09-17T00:08:08.766Z,0.00
2022-09-17T00:09:08.767Z,0.00
2022-09-17T00:10:08.782Z,0.00
2022-09-17T00:11:08.801Z,0.00
2022-09-17T00:12:08.778Z,0.00
2022-09-17T00:13:08.792Z,0.00
2022-09-17T00:14:08.794Z,0.00
2022-09-17T00:15:08.876Z,0.00
2022-09-17T00:16:08.820Z,0.00
2022-09-17T00:17:08.790Z,0.00
2022-09-17T00:18:08.770Z,0.00
2022-09-17T00:19:08.778Z,0.00
2022-09-17T00:20:08.795Z,0.00
2022-09-17T00:21:08.799Z,0.00
2022-09-17T00:22:08.788Z,0.00
2022-09-17T00:23:08.759Z,0.00
2022-09-17T00:24:08.776Z,0.00
2022-09-17T00:25:08.803Z,0.00
2022-09-17T00:26:08.762Z,0.00
2022-09-17T00:27:08.803Z,0.00
2022-09-17T00:28:08.771Z,0.00
2022-09-17T00:29:08.776Z,0.00
2022-09-17T00:30:08.773Z,0.00
2022-09-17T00:31:08.959Z,0.00
2022-09-17T00:32:08.781Z,0.00
2022-09-17T00:33:08.790Z,0.00
2022-09-17T00:34:08.781Z,0.00
2022-09-17T00:35:08.778Z,0.00
2022-09-17T00:36:08.782Z,0.00
2022-09-17T00:37:08.813Z,0.00
2022-09-17T00:38:08.758Z,0.00
2022-09-17T00:39:08.816Z,0.00
2022-09-17T00:40:08.823Z,0.00
2022-09-17T00:41:08.769Z,0.00
2022-09-17T00:42:08.795Z,0.00
2022-09-17T00:43:08.759Z,0.00
2022-09-17T00:44:08.771Z,0.00
2022-09-17T00:45:08.771Z,0.00
2022-09-17T00:46:08.802Z,0.00
2022-09-17T00:47:08.861Z,0.00
2022-09-17T00:48:08.770Z,0.00
2022-09-17T00:49:08.772Z,0.00
2022-09-17T00:50:08.778Z,0.00
2022-09-17T00:51:08.783Z,0.00
2022-09-17T00:52:08.767Z,0.00
2022-09-17T00:53:08.783Z,0.00
2022-09-17T00:54:08.766Z,0.00
2022-09-17T00:55:08.762Z,0.00
2022-09-17T00:56:08.748Z,0.00
2022-09-17T00:59:00.086Z,0.00
2022-09-17T01:01:27.672Z,0.00
2022-09-17T01:02:13.105Z,0.00
2022-09-17T01:03:12.914Z,0.00
2022-09-17T01:04:12.940Z,0.00
2022-09-17T01:05:12.917Z,0.00
2022-09-17T01:06:12.915Z,0.00
2022-09-17T01:07:12.912Z,0.00
2022-09-17T01:08:12.905Z,0.00
2022-09-17T01:09:12.909Z,0.00
2022-09-17T01:10:12.942Z,0.00
2022-09-17T01:11:12.925Z,0.00
2022-09-17T01:12:12.924Z,0.00
2022-09-17T01:13:12.900Z,0.00
2022-09-17T01:14:12.902Z,0.00
2022-09-17T01:15:12.915Z,0.00
2022-09-17T01:16:12.959Z,0.00
2022-09-17T01:17:12.917Z,0.00
2022-09-17T01:18:13.021Z,0.00
2022-09-17T01:19:12.923Z,0.00
2022-09-17T01:20:12.922Z,0.00
2022-09-17T01:21:12.911Z,0.00
2022-09-17T01:22:12.918Z,0.00
2022-09-17T01:23:12.926Z,0.00
2022-09-17T01:24:12.931Z,0.00
2022-09-17T01:25:12.912Z,0.00
2022-09-17T01:26:12.916Z,0.00
2022-09-17T01:27:12.934Z,0.00
2022-09-17T01:28:12.937Z,0.00
2022-09-17T01:29:12.910Z,0.00
2022-09-17T01:30:12.908Z,0.00
2022-09-17T01:32:45.006Z,0.00
2022-09-17T01:33:45.070Z,0.00
2022-09-17T01:34:44.975Z,0.00
2022-09-17T01:35:44.997Z,0.00
2022-09-17T01:36:44.977Z,0.00
2022-09-17T01:37:45.009Z,0.00
2022-09-17T01:40:17.130Z,0.00
2022-09-17T01:41:17.064Z,0.00
2022-09-17T01:42:17.052Z,0.00
2022-09-17T01:43:17.062Z,0.00
2022-09-17T01:44:17.061Z,0.00
2022-09-17T01:45:17.063Z,0.00
2022-09-17T01:46:17.084Z,0.00
2022-09-17T01:47:20.911Z,0.00
2022-09-17T01:48:17.058Z,0.00
2022-09-17T01:49:17.156Z,0.00
2022-09-17T01:50:17.079Z,0.00
2022-09-17T01:51:17.064Z,0.00
2022-09-17T01:52:17.051Z,0.00
2022-09-17T01:53:17.062Z,0.00
2022-09-17T01:54:17.055Z,0.00
2022-09-17T01:55:17.059Z,0.00
2022-09-17T01:56:17.058Z,0.00
2022-09-17T01:57:17.052Z,0.00
2022-09-17T01:59:51.437Z,0.00
2022-09-17T02:02:21.201Z,0.00
2022-09-17T02:03:21.168Z,0.00
2022-09-17T02:04:21.254Z,0.00
2022-09-17T02:05:21.169Z,0.00
2022-09-17T02:06:21.173Z,0.00
2022-09-17T02:07:21.173Z,0.00
2022-09-17T02:08:21.181Z,0.00
2022-09-17T02:09:21.163Z,0.00
2022-09-17T02:10:21.163Z,0.00
2022-09-17T02:11:21.178Z,0.00
2022-09-17T02:12:21.180Z,0.00
2022-09-17T02:13:21.173Z,0.00
2022-09-17T02:14:21.161Z,0.00
2022-09-17T02:15:21.167Z,0.00
2022-09-17T02:16:21.214Z,0.00
2022-09-17T02:17:21.199Z,0.00
2022-09-17T02:18:21.162Z,0.00
2022-09-17T02:19:21.163Z,0.00
2022-09-17T02:20:23.044Z,0.00
2022-09-17T02:21:21.176Z,0.00
2022-09-17T02:22:21.183Z,0.00
2022-09-17T02:23:21.187Z,0.00
2022-09-17T02:24:21.204Z,0.00
2022-09-17T02:25:21.174Z,0.00
2022-09-17T02:26:21.167Z,0.00
2022-09-17T02:27:21.181Z,0.00
2022-09-17T02:28:21.174Z,0.00
2022-09-17T02:29:21.156Z,0.00
2022-09-17T02:30:21.179Z,0.00
2022-09-17T02:31:21.195Z,0.00
2022-09-17T02:32:21.162Z,0.00
2022-09-17T02:33:21.156Z,0.00
2022-09-17T02:34:21.184Z,0.00
2022-09-17T02:35:21.186Z,0.00
2022-09-17T02:36:21.255Z,0.00
2022-09-17T02:37:21.172Z,0.00
2022-09-17T02:38:21.196Z,0.00
2022-09-17T02:39:21.170Z,0.00
2022-09-17T02:40:21.222Z,0.00
2022-09-17T02:41:21.175Z,0.00
2022-09-17T02:42:21.176Z,0.00
2022-09-17T02:43:21.216Z,0.00
2022-09-17T02:44:21.181Z,0.00
2022-09-17T02:45:21.170Z,0.00
2022-09-17T02:46:21.234Z,0.00
2022-09-17T02:47:21.188Z,0.00
2022-09-17T02:48:21.180Z,0.00
2022-09-17T02:49:21.177Z,0.00
2022-09-17T02:50:21.171Z,0.00
2022-09-17T02:51:21.164Z,0.00
2022-09-17T02:52:21.258Z,0.00
2022-09-17T02:53:21.165Z,0.00
2022-09-17T02:54:21.164Z,0.00
2022-09-17T02:55:21.182Z,0.00
2022-09-17T02:56:21.164Z,0.00
2022-09-17T02:57:21.185Z,0.00
2022-09-17T02:58:21.172Z,0.00
2022-09-17T02:59:21.174Z,0.00
2022-09-17T03:00:21.166Z,0.00
2022-09-17T03:01:21.261Z,0.00
2022-09-17T03:02:21.234Z,0.00
2022-09-17T03:03:21.182Z,0.00
2022-09-17T03:04:21.168Z,0.00
2022-09-17T03:05:21.179Z,0.00
2022-09-17T03:06:21.157Z,0.00
2022-09-17T03:07:21.194Z,0.00
2022-09-17T03:08:21.284Z,0.00
2022-09-17T03:09:21.177Z,0.00
2022-09-17T03:10:21.159Z,0.00
2022-09-17T03:11:21.161Z,0.00
2022-09-17T03:12:24.359Z,0.00
2022-09-17T03:13:21.177Z,0.00
2022-09-17T03:14:21.179Z,0.00
2022-09-17T03:15:21.171Z,0.00
2022-09-17T03:16:21.185Z,0.00
2022-09-17T03:17:21.179Z,0.00
2022-09-17T03:18:21.181Z,0.00
2022-09-17T03:19:21.171Z,0.00
2022-09-17T03:20:21.170Z,0.00
2022-09-17T03:21:21.184Z,0.00
2022-09-17T03:22:21.194Z,0.00
2022-09-17T03:23:21.199Z,0.00
2022-09-17T03:24:21.281Z,0.00
2022-09-17T03:25:21.179Z,0.00
2022-09-17T03:26:21.189Z,0.00
2022-09-17T03:27:21.169Z,0.00
2022-09-17T03:28:21.175Z,0.00
2022-09-17T03:29:21.189Z,0.00
2022-09-17T03:30:21.172Z,0.00
2022-09-17T03:31:21.230Z,0.00
2022-09-17T03:32:21.164Z,0.00
2022-09-17T03:33:21.178Z,0.00
2022-09-17T03:34:21.167Z,0.00
2022-09-17T03:35:21.174Z,0.00
2022-09-17T03:37:53.231Z,0.00
2022-09-17T03:38:53.245Z,0.00
2022-09-17T03:39:53.344Z,0.00
2022-09-17T03:42:30.992Z,0.00
2022-09-17T03:43:25.294Z,0.00
2022-09-17T03:44:25.289Z,0.00
2022-09-17T03:45:25.312Z,0.00
2022-09-17T03:46:25.301Z,0.00
2022-09-17T03:47:25.302Z,0.00
2022-09-17T03:48:25.309Z,0.00
2022-09-17T03:49:25.304Z,0.00
2022-09-17T03:50:25.298Z,0.00
2022-09-17T03:51:25.284Z,0.00
2022-09-17T03:52:25.294Z,0.00
2022-09-17T03:53:25.295Z,0.00
2022-09-17T03:56:09.111Z,0.00
2022-09-17T03:56:57.337Z,0.00
2022-09-17T03:57:57.329Z,0.00
2022-09-17T03:58:57.358Z,0.00
2022-09-17T03:59:57.337Z,0.00
2022-09-17T04:00:57.366Z,0.00
2022-09-17T04:01:57.436Z,0.00
2022-09-17T04:02:57.348Z,0.00
2022-09-17T04:03:57.377Z,0.00
2022-09-17T04:04:57.336Z,0.00
2022-09-17T04:05:57.353Z,0.00
2022-09-17T04:06:58.053Z,0.00
2022-09-17T04:08:05.508Z,0.00
2022-09-17T04:08:57.338Z,0.00
2022-09-17T04:09:57.354Z,0.00
2022-09-17T04:10:57.353Z,0.00
2022-09-17T04:11:57.427Z,0.00
2022-09-17T04:12:57.326Z,0.00
2022-09-17T04:13:57.445Z,0.00
2022-09-17T04:14:57.335Z,0.00
2022-09-17T04:15:57.447Z,0.00
2022-09-17T04:16:57.340Z,0.00
2022-09-17T04:17:57.338Z,0.00
2022-09-17T04:18:57.338Z,0.00
2022-09-17T04:19:57.351Z,0.00
2022-09-17T04:20:57.326Z,0.00
2022-09-17T04:21:57.338Z,0.00
2022-09-17T04:22:57.363Z,0.00
2022-09-17T04:23:57.340Z,0.00
2022-09-17T04:24:57.342Z,0.00
2022-09-17T04:25:57.356Z,0.00
2022-09-17T04:26:57.341Z,0.00
2022-09-17T04:27:57.449Z,0.00
2022-09-17T04:28:57.336Z,0.00
2022-09-17T04:29:57.334Z,0.00
2022-09-17T04:30:57.394Z,0.00
2022-09-17T04:31:57.345Z,0.00
2022-09-17T04:32:57.346Z,0.00
2022-09-17T04:33:57.357Z,0.00
2022-09-17T04:34:57.349Z,0.00
2022-09-17T04:35:57.358Z,0.00
2022-09-17T04:36:57.344Z,0.00
2022-09-17T04:37:57.338Z,0.00
2022-09-17T04:38:57.358Z,0.00
2022-09-17T04:39:57.389Z,0.00
2022-09-17T04:40:57.352Z,0.00
2022-09-17T04:41:57.347Z,0.00
2022-09-17T04:42:57.339Z,0.00
2022-09-17T04:43:57.433Z,0.00
2022-09-17T04:44:57.361Z,0.00
2022-09-17T04:45:57.366Z,0.00
2022-09-17T04:46:57.421Z,0.00
2022-09-17T04:47:57.361Z,0.00
2022-09-17T04:48:57.344Z,0.00
2022-09-17T04:49:57.345Z,0.00
2022-09-17T04:50:57.351Z,0.00
2022-09-17T04:51:57.347Z,0.00
2022-09-17T04:52:57.366Z,0.00
2022-09-17T04:53:57.369Z,0.00
2022-09-17T04:54:57.349Z,0.00
2022-09-17T04:55:57.350Z,0.00
2022-09-17T04:56:57.351Z,0.00
2022-09-17T04:57:57.353Z,0.00
2022-09-17T04:58:57.351Z,0.00
2022-09-17T04:59:57.449Z,0.00
2022-09-17T05:00:57.417Z,0.00
2022-09-17T05:01:57.405Z,0.00
2022-09-17T05:02:57.341Z,0.00
2022-09-17T05:03:57.345Z,0.00
2022-09-17T05:04:57.355Z,0.00
2022-09-17T05:05:57.349Z,0.00
2022-09-17T05:06:57.353Z,0.00
2022-09-17T05:07:57.354Z,0.00
2022-09-17T05:08:57.381Z,0.00
2022-09-17T05:09:57.342Z,0.00
2022-09-17T05:10:57.352Z,0.00
2022-09-17T05:11:57.351Z,0.00
2022-09-17T05:12:57.372Z,0.00
2022-09-17T05:13:57.365Z,0.00
2022-09-17T05:14:57.347Z,0.00
2022-09-17T05:15:57.594Z,0.00
2022-09-17T05:16:57.353Z,0.00
2022-09-17T05:17:57.342Z,0.00
2022-09-17T05:18:57.363Z,0.00
2022-09-17T05:19:57.365Z,0.00
2022-09-17T05:20:57.368Z,0.00
2022-09-17T05:21:57.357Z,0.00
2022-09-17T05:22:57.368Z,0.00
2022-09-17T05:23:57.339Z,0.00
2022-09-17T05:24:57.344Z,0.00
2022-09-17T05:25:57.355Z,0.00
2022-09-17T05:26:57.360Z,0.00
2022-09-17T05:27:57.340Z,0.00
2022-09-17T05:28:57.607Z,5.63
2022-09-17T05:29:57.353Z,5.63
2022-09-17T05:30:57.353Z,5.63
2022-09-17T05:31:57.441Z,5.63
2022-09-17T05:32:57.344Z,11.25
2022-09-17T05:33:57.349Z,11.25
2022-09-17T05:34:57.366Z,16.88
2022-09-17T05:35:57.383Z,16.88
2022-09-17T05:36:57.366Z,16.88
2022-09-17T05:37:57.355Z,22.50
2022-09-17T05:38:57.446Z,16.88
2022-09-17T05:39:57.389Z,11.25
2022-09-17T05:40:57.360Z,11.25
2022-09-17T05:41:57.424Z,5.63
2022-09-17T05:42:57.364Z,5.63
2022-09-17T05:43:57.387Z,0.00
2022-09-17T05:44:57.391Z,0.00
2022-09-17T05:45:57.348Z,0.00
2022-09-17T05:46:57.405Z,0.00
2022-09-17T05:47:57.470Z,5.63
2022-09-17T05:48:57.343Z,5.63
2022-09-17T05:49:57.354Z,5.63
2022-09-17T05:50:57.356Z,5.63
2022-09-17T05:51:57.374Z,0.00
2022-09-17T05:52:57.345Z,5.63
2022-09-17T05:53:57.347Z,5.63
2022-09-17T05:54:57.361Z,5.63
2022-09-17T05:55:57.359Z,0.00
2022-09-17T05:56:57.345Z,0.00
2022-09-17T05:57:57.365Z,0.00
2022-09-17T05:58:57.474Z,0.00
2022-09-17T05:59:57.357Z,5.63
2022-09-17T06:00:57.349Z,5.63
2022-09-17T06:01:57.405Z,5.63
2022-09-17T06:02:57.407Z,5.63
2022-09-17T06:03:57.503Z,5.63
2022-09-17T06:04:57.398Z,11.25
2022-09-17T06:05:57.361Z,11.25
2022-09-17T06:06:57.377Z,16.88
2022-09-17T06:07:57.378Z,11.25
2022-09-17T06:08:57.433Z,11.25
2022-09-17T06:09:57.354Z,11.25
2022-09-17T06:11:02.105Z,16.88
2022-09-17T06:11:57.385Z,16.88
2022-09-17T06:12:57.366Z,22.50
2022-09-17T06:13:57.400Z,22.50
2022-09-17T06:14:57.364Z,33.75
2022-09-17T06:15:57.399Z,33.75
2022-09-17T06:16:57.347Z,33.75
2022-09-17T06:17:57.351Z,33.75
2022-09-17T06:18:57.391Z,28.13
2022-09-17T06:19:57.452Z,22.50
2022-09-17T06:20:57.368Z,11.25
2022-09-17T06:21:57.370Z,11.25
2022-09-17T06:22:57.364Z,11.25
2022-09-17T06:23:57.367Z,16.88
2022-09-17T06:24:57.392Z,22.50
2022-09-17T06:25:57.368Z,22.50
2022-09-17T06:26:57.387Z,22.50
2022-09-17T06:27:57.388Z,16.88
2022-09-17T06:28:57.423Z,16.88
2022-09-17T06:29:57.368Z,16.88
2022-09-17T06:30:57.400Z,11.25
2022-09-17T06:31:57.444Z,5.63
2022-09-17T06:32:57.362Z,5.63
2022-09-17T06:33:58.498Z,11.25
2022-09-17T06:34:57.391Z,11.25
2022-09-17T06:35:57.455Z,11.25
2022-09-17T06:36:57.386Z,11.25
2022-09-17T06:37:57.368Z,11.25
2022-09-17T06:38:57.385Z,11.25
2022-09-17T06:39:57.435Z,11.25
2022-09-17T06:40:57.362Z,16.88
2022-09-17T06:41:57.374Z,22.50
2022-09-17T06:42:57.360Z,22.50
2022-09-17T06:43:57.445Z,22.50
2022-09-17T06:44:59.243Z,22.50
2022-09-17T06:45:57.360Z,22.50
2022-09-17T06:46:57.413Z,22.50
2022-09-17T06:47:57.357Z,22.50
2022-09-17T06:48:57.360Z,28.13
2022-09-17T06:49:57.361Z,22.50
2022-09-17T06:50:57.400Z,16.88
2022-09-17T06:51:57.464Z,11.25
2022-09-17T06:52:57.357Z,11.25
2022-09-17T06:53:57.373Z,11.25
2022-09-17T06:54:57.365Z,16.88
2022-09-17T06:55:57.380Z,22.50
2022-09-17T06:56:57.364Z,22.50
2022-09-17T06:57:57.396Z,33.75
2022-09-17T06:58:57.422Z,28.13
2022-09-17T06:59:57.360Z,33.75
2022-09-17T07:00:57.461Z,39.38
2022-09-17T07:01:57.405Z,45.00
2022-09-17T07:02:57.373Z,28.13
2022-09-17T07:03:57.368Z,22.50
2022-09-17T07:04:57.414Z,22.50
2022-09-17T07:05:57.378Z,22.50
2022-09-17T07:06:57.366Z,22.50
2022-09-17T07:07:57.465Z,16.88
2022-09-17T07:08:57.396Z,16.88
2022-09-17T07:09:57.386Z,16.88
2022-09-17T07:10:57.387Z,16.88
2022-09-17T07:11:57.382Z,16.88
2022-09-17T07:12:57.372Z,22.50
2022-09-17T07:13:57.446Z,22.50
2022-09-17T07:14:57.382Z,22.50
2022-09-17T07:15:57.420Z,33.75
2022-09-17T07:16:57.400Z,28.13
2022-09-17T07:17:57.396Z,39.38
2022-09-17T07:18:57.366Z,33.75
2022-09-17T07:19:57.395Z,28.13
2022-09-17T07:20:57.383Z,28.13
2022-09-17T07:21:57.415Z,28.13
2022-09-17T07:22:57.414Z,28.13
2022-09-17T07:23:57.487Z,22.50
2022-09-17T07:24:57.413Z,33.75
2022-09-17T07:25:57.391Z,28.13
2022-09-17T07:26:57.368Z,28.13
2022-09-17T07:27:57.425Z,33.75
2022-09-17T07:28:57.447Z,28.13
2022-09-17T07:29:57.374Z,28.13
2022-09-17T07:30:57.419Z,33.75
2022-09-17T07:31:57.383Z,33.75
2022-09-17T07:32:57.401Z,28.13
2022-09-17T07:33:57.367Z,39.38
2022-09-17T07:34:57.376Z,33.75
2022-09-17T07:35:57.382Z,28.13
2022-09-17T07:36:57.378Z,33.75
2022-09-17T07:37:57.367Z,45.00
2022-09-17T07:38:57.390Z,45.00
2022-09-17T07:39:57.528Z,50.63
2022-09-17T07:40:57.395Z,45.00
2022-09-17T07:41:57.437Z,45.00
2022-09-17T07:42:57.370Z,39.38
2022-09-17T07:43:57.429Z,33.75
2022-09-17T07:45:01.774Z,39.38
2022-09-17T07:45:57.395Z,39.38
2022-09-17T07:46:57.430Z,33.75
2022-09-17T07:47:57.382Z,33.75
2022-09-17T07:48:57.382Z,50.63
2022-09-17T07:49:57.386Z,45.00
2022-09-17T07:50:57.375Z,33.75
2022-09-17T07:51:57.497Z,33.75
2022-09-17T07:52:57.378Z,33.75
2022-09-17T07:53:57.374Z,39.38
2022-09-17T07:54:57.379Z,39.38
2022-09-17T07:55:57.482Z,61.88
2022-09-17T07:56:57.448Z,95.63
2022-09-17T07:57:57.421Z,101.25
2022-09-17T07:58:57.458Z,67.50
2022-09-17T07:59:57.379Z,61.88
2022-09-17T08:01:08.634Z,84.38
2022-09-17T08:01:58.702Z,106.88
2022-09-17T08:02:57.466Z,118.13
2022-09-17T08:03:57.391Z,174.38
2022-09-17T08:06:29.464Z,123.75
2022-09-17T08:07:29.478Z,90.00
2022-09-17T08:08:29.457Z,61.88
2022-09-17T08:09:29.450Z,61.88
2022-09-17T08:10:29.466Z,56.25
2022-09-17T08:11:54.390Z,61.88
2022-09-17T08:12:29.471Z,73.13
2022-09-17T08:13:29.477Z,90.00
2022-09-17T08:14:30.128Z,90.00
2022-09-17T08:15:29.522Z,95.63
2022-09-17T08:16:29.508Z,67.50
2022-09-17T08:17:29.471Z,56.25
2022-09-17T08:18:29.462Z,50.63
2022-09-17T08:19:29.464Z,39.38
2022-09-17T08:20:29.459Z,39.38
2022-09-17T08:21:29.454Z,56.25
2022-09-17T08:22:29.466Z,50.63
2022-09-17T08:23:29.466Z,56.25
2022-09-17T08:24:29.483Z,56.25
2022-09-17T08:25:29.465Z,67.50
2022-09-17T08:26:29.506Z,78.75
2022-09-17T08:27:29.577Z,101.25
2022-09-17T08:28:29.465Z,112.50
2022-09-17T08:29:34.510Z,123.75
2022-09-17T08:30:29.466Z,106.88
2022-09-17T08:31:29.538Z,73.13
2022-09-17T08:32:29.485Z,78.75
2022-09-17T08:33:29.471Z,84.38
2022-09-17T08:34:29.472Z,67.50
2022-09-17T08:35:29.470Z,90.00
2022-09-17T08:36:29.468Z,101.25
2022-09-17T08:37:29.487Z,95.63
2022-09-17T08:38:29.473Z,90.00
2022-09-17T08:39:29.574Z,180.00
2022-09-17T08:40:29.530Z,168.75
2022-09-17T08:41:29.477Z,112.50
2022-09-17T08:42:29.497Z,168.75
2022-09-17T08:43:29.583Z,236.25
2022-09-17T08:44:29.494Z,129.38
2022-09-17T08:45:29.503Z,135.00
2022-09-17T08:46:29.519Z,191.25
2022-09-17T08:47:29.492Z,174.38
2022-09-17T08:48:29.569Z,101.25
2022-09-17T08:49:29.526Z,146.25
2022-09-17T08:50:29.511Z,168.75
2022-09-17T08:51:29.509Z,56.25
2022-09-17T08:52:29.485Z,45.00
2022-09-17T08:53:29.493Z,129.38
2022-09-17T08:54:29.498Z,106.88
2022-09-17T08:55:29.510Z,50.63
2022-09-17T08:56:29.523Z,73.13
2022-09-17T08:57:29.488Z,112.50
2022-09-17T08:58:29.506Z,191.25
2022-09-17T08:59:29.681Z,157.50
2022-09-17T09:00:29.507Z,202.50
2022-09-17T09:01:29.568Z,101.25
2022-09-17T09:02:29.747Z,90.00
2022-09-17T09:03:29.501Z,73.13
2022-09-17T09:04:29.510Z,73.13
2022-09-17T09:05:29.530Z,106.88
2022-09-17T09:06:29.512Z,180.00
2022-09-17T09:07:29.534Z,123.75
2022-09-17T09:08:29.508Z,185.63
2022-09-17T09:09:29.520Z,219.38
2022-09-17T09:10:29.528Z,61.88
2022-09-17T09:11:29.535Z,61.88
2022-09-17T09:12:29.510Z,157.50
2022-09-17T09:13:29.511Z,78.75
2022-09-17T09:14:29.518Z,61.88
2022-09-17T09:15:29.634Z,73.13
2022-09-17T09:16:29.599Z,67.50
2022-09-17T09:17:29.525Z,90.00
2022-09-17T09:18:29.541Z,45.00
2022-09-17T09:19:29.557Z,45.00
2022-09-17T09:20:29.532Z,50.63
2022-09-17T09:21:29.532Z,343.13
2022-09-17T09:22:29.539Z,225.00
2022-09-17T09:23:29.540Z,112.50
2022-09-17T09:24:29.557Z,73.13
2022-09-17T09:25:29.555Z,84.38
2022-09-17T09:26:29.543Z,506.25
2022-09-17T09:27:29.569Z,258.75
2022-09-17T09:28:29.542Z,78.75
2022-09-17T09:29:29.551Z,61.88
2022-09-17T09:30:29.560Z,67.50
2022-09-17T09:34:52.427Z,270.00
2022-09-17T09:35:33.201Z,213.75
2022-09-17T09:36:33.216Z,185.63
2022-09-17T09:37:33.840Z,208.13
2022-09-17T09:38:33.198Z,393.75
2022-09-17T09:39:39.184Z,663.75
2022-09-17T09:40:33.247Z,84.38
2022-09-17T09:41:33.196Z,61.88
2022-09-17T09:42:33.203Z,56.25
2022-09-17T09:43:53.019Z,67.50
2022-09-17T09:44:34.108Z,78.75
2022-09-17T09:45:33.236Z,56.25
2022-09-17T09:46:33.296Z,45.00
2022-09-17T09:47:33.210Z,33.75
2022-09-17T09:48:33.223Z,39.38
2022-09-17T09:49:33.231Z,39.38
2022-09-17T09:50:54.788Z,118.13
2022-09-17T09:51:33.233Z,140.63
2022-09-17T09:52:33.251Z,78.75
2022-09-17T09:53:33.230Z,61.88
2022-09-17T09:54:33.238Z,56.25
2022-09-17T09:55:33.244Z,45.00
2022-09-17T09:56:33.263Z,33.75
2022-09-17T09:57:33.252Z,33.75
2022-09-17T09:58:33.267Z,45.00
2022-09-17T09:59:33.266Z,33.75
2022-09-17T10:00:33.251Z,39.38
2022-09-17T10:01:33.329Z,39.38
2022-09-17T10:02:33.394Z,39.38
2022-09-17T10:03:33.247Z,45.00
2022-09-17T10:04:33.270Z,45.00
2022-09-17T10:05:33.271Z,50.63
2022-09-17T10:06:33.357Z,67.50
2022-09-17T10:09:20.469Z,118.13
2022-09-17T10:10:19.839Z,146.25
2022-09-17T10:11:19.961Z,275.63
2022-09-17T10:12:19.982Z,1805.63
2022-09-17T10:13:19.868Z,320.63
2022-09-17T10:14:20.816Z,1923.75
2022-09-17T10:15:19.845Z,309.38
2022-09-17T10:16:19.966Z,1783.13
2022-09-17T10:17:19.878Z,956.25
2022-09-17T10:18:19.863Z,1541.25
2022-09-17T10:19:19.854Z,1856.25
2022-09-17T10:20:23.046Z,1974.38
2022-09-17T10:21:19.872Z,1524.38
2022-09-17T10:22:19.955Z,1788.75
2022-09-17T10:23:19.897Z,1366.88
2022-09-17T10:24:19.876Z,1125.00
2022-09-17T10:25:21.804Z,1158.75
2022-09-17T10:26:19.884Z,2053.13
2022-09-17T10:27:19.911Z,1125.00
2022-09-17T10:28:19.914Z,1653.75
2022-09-17T10:29:19.912Z,146.25
2022-09-17T10:30:19.895Z,157.50
2022-09-17T10:31:19.929Z,174.38
2022-09-17T10:32:19.902Z,61.88
2022-09-17T10:33:19.977Z,67.50
2022-09-17T10:34:19.924Z,106.88
2022-09-17T10:35:19.928Z,180.00
2022-09-17T10:36:19.941Z,652.50
2022-09-17T10:37:19.927Z,247.50
2022-09-17T10:38:20.049Z,298.13
2022-09-17T10:39:19.948Z,163.13
2022-09-17T10:40:20.200Z,759.38
2022-09-17T10:41:19.961Z,118.13
2022-09-17T10:42:19.962Z,191.25
2022-09-17T10:43:19.983Z,78.75
2022-09-17T10:44:19.992Z,56.25
2022-09-17T10:45:19.990Z,50.63
2022-09-17T10:46:22.868Z,33.75
2022-09-17T10:47:19.993Z,33.75
2022-09-17T10:48:20.003Z,28.13
2022-09-17T10:49:19.998Z,28.13
2022-09-17T10:50:20.001Z,33.75
2022-09-17T10:51:20.052Z,39.38
2022-09-17T10:52:20.011Z,56.25
2022-09-17T10:53:20.003Z,106.88
2022-09-17T10:54:20.116Z,129.38
2022-09-17T10:55:20.044Z,118.13
2022-09-17T10:56:20.017Z,168.75
2022-09-17T10:57:20.033Z,174.38
2022-09-17T10:58:20.027Z,528.75
2022-09-17T10:59:20.049Z,354.38
2022-09-17T11:00:20.044Z,810.00
2022-09-17T11:01:20.134Z,225.00
2022-09-17T11:02:20.161Z,95.63
2022-09-17T11:03:20.046Z,84.38
2022-09-17T11:04:20.069Z,84.38
2022-09-17T11:05:20.048Z,118.13
2022-09-17T11:06:20.077Z,140.63
2022-09-17T11:07:20.058Z,208.13
2022-09-17T11:08:20.062Z,461.25
2022-09-17T11:09:20.058Z,208.13
2022-09-17T11:10:20.146Z,270.00
2022-09-17T11:11:20.068Z,174.38
2022-09-17T11:12:20.066Z,90.00
2022-09-17T11:13:20.062Z,95.63
2022-09-17T11:14:20.071Z,78.75
2022-09-17T11:15:20.081Z,61.88
2022-09-17T11:16:20.154Z,67.50
2022-09-17T11:17:20.075Z,73.13
2022-09-17T11:18:20.094Z,101.25
2022-09-17T11:19:20.116Z,174.38
2022-09-17T11:20:20.094Z,331.88
2022-09-17T11:21:20.094Z,236.25
2022-09-17T11:22:20.111Z,84.38
2022-09-17T11:23:20.102Z,309.38
2022-09-17T11:24:20.107Z,292.50
2022-09-17T11:25:20.142Z,180.00
2022-09-17T11:26:20.210Z,196.88
2022-09-17T11:27:20.121Z,225.00
2022-09-17T11:28:20.121Z,208.13
2022-09-17T11:29:20.113Z,247.50
2022-09-17T11:30:20.124Z,410.63
2022-09-17T11:31:24.080Z,286.88
2022-09-17T11:32:20.139Z,196.88
2022-09-17T11:33:20.138Z,196.88
2022-09-17T11:34:20.119Z,140.63
2022-09-17T11:35:20.127Z,101.25
2022-09-17T11:36:20.130Z,95.63
2022-09-17T11:37:20.144Z,78.75
2022-09-17T11:38:20.157Z,67.50
2022-09-17T11:39:20.137Z,61.88
2022-09-17T11:40:20.189Z,67.50
2022-09-17T11:41:20.157Z,78.75
2022-09-17T11:42:20.274Z,118.13
2022-09-17T11:43:20.159Z,219.38
2022-09-17T11:44:20.167Z,230.63
2022-09-17T11:45:20.154Z,264.38
2022-09-17T11:46:20.228Z,253.13
2022-09-17T11:47:20.180Z,225.00
2022-09-17T11:48:20.199Z,247.50
2022-09-17T11:49:20.191Z,292.50
2022-09-17T11:50:20.180Z,264.38
2022-09-17T11:51:20.197Z,241.88
2022-09-17T11:52:20.200Z,241.88
2022-09-17T11:53:20.199Z,208.13
2022-09-17T11:54:20.203Z,196.88
2022-09-17T11:55:20.194Z,174.38
2022-09-17T11:56:20.191Z,180.00
2022-09-17T11:57:20.195Z,168.75
2022-09-17T11:58:20.306Z,146.25
2022-09-17T11:59:20.193Z,180.00
2022-09-17T12:00:20.198Z,185.63
2022-09-17T12:01:20.226Z,135.00
2022-09-17T12:02:20.230Z,118.13
2022-09-17T12:03:20.302Z,112.50
2022-09-17T12:04:20.224Z,118.13
2022-09-17T12:05:20.212Z,112.50
2022-09-17T12:06:20.242Z,135.00
2022-09-17T12:07:20.232Z,146.25
2022-09-17T12:08:20.222Z,151.88
2022-09-17T12:09:20.236Z,163.13
2022-09-17T12:10:20.244Z,168.75
2022-09-17T12:11:20.232Z,174.38
2022-09-17T12:12:45.037Z,151.88
2022-09-17T12:13:20.230Z,180.00
2022-09-17T12:14:20.363Z,157.50
2022-09-17T12:15:20.250Z,168.75
2022-09-17T12:16:20.408Z,157.50
2022-09-17T12:17:20.267Z,146.25
2022-09-17T12:18:31.633Z,140.63
2022-09-17T12:19:20.337Z,129.38
2022-09-17T12:20:20.278Z,129.38
2022-09-17T12:21:20.268Z,118.13
2022-09-17T12:22:20.254Z,90.00
2022-09-17T12:23:20.267Z,106.88
2022-09-17T12:24:20.271Z,112.50
2022-09-17T12:25:20.293Z,135.00
2022-09-17T12:26:20.281Z,118.13
2022-09-17T12:27:20.281Z,135.00
2022-09-17T12:28:20.304Z,129.38
2022-09-17T12:29:20.332Z,163.13
2022-09-17T12:30:22.827Z,174.38
2022-09-17T12:31:20.351Z,174.38
2022-09-17T12:32:20.289Z,129.38
2022-09-17T12:33:20.284Z,129.38
2022-09-17T12:34:20.305Z,163.13
2022-09-17T12:35:20.306Z,151.88
2022-09-17T12:36:20.318Z,146.25
2022-09-17T12:37:20.299Z,112.50
2022-09-17T12:38:20.301Z,61.88
2022-09-17T12:39:20.358Z,61.88
2022-09-17T12:40:20.436Z,95.63
2022-09-17T12:41:20.319Z,101.25
2022-09-17T12:42:20.328Z,101.25
2022-09-17T12:43:20.325Z,73.13
2022-09-17T12:44:20.310Z,67.50
2022-09-17T12:45:28.139Z,90.00
2022-09-17T12:46:28.628Z,73.13
2022-09-17T12:47:29.272Z,118.13
2022-09-17T12:48:28.586Z,118.13
2022-09-17T12:49:28.852Z,118.13
2022-09-17T12:50:30.644Z,118.13
2022-09-17T12:51:31.237Z,101.25
2022-09-17T12:52:30.835Z,90.00
2022-09-17T12:53:31.402Z,90.00
2022-09-17T12:54:33.961Z,95.63
2022-09-17T12:55:29.342Z,95.63
2022-09-17T12:56:29.290Z,95.63
2022-09-17T12:59:08.943Z,28.13
2022-09-17T13:00:05.252Z,22.50
2022-09-17T13:01:11.255Z,16.88
2022-09-17T13:03:41.325Z,39.38
2022-09-17T13:05:00.083Z,45.00
2022-09-17T13:05:41.315Z,73.13
2022-09-17T13:06:41.315Z,112.50
2022-09-17T13:07:41.320Z,118.13
2022-09-17T13:08:41.336Z,95.63
2022-09-17T13:09:41.345Z,84.38
2022-09-17T13:10:41.309Z,106.88
2022-09-17T13:11:41.449Z,135.00
2022-09-17T13:12:41.333Z,95.63
2022-09-17T13:13:41.348Z,90.00
2022-09-17T13:14:41.337Z,112.50
2022-09-17T13:15:41.697Z,61.88
2022-09-17T13:16:41.456Z,95.63
2022-09-17T13:17:41.321Z,101.25
2022-09-17T13:18:41.733Z,95.63
2022-09-17T13:19:41.339Z,84.38
2022-09-17T13:20:41.346Z,67.50